CheckWX is a tool to help pilots better visualize weather data.  It is not intended as a substitute for an official pre-flight weather briefing.

06:04:11 UTC

CYRA METAR
Rae Lakes Airport
Gamètì, Canada
Current

5 hours ago

CYRA 200100Z VRB02KT 15SM BKN083 M23/M27 A2991 RMK AC6 S00 AFT 15UTC/ LAST STFD OBS/NEXT 201500 UTC SLP163
Observed
Feb-20 @ 01:00 UTC
Wind
  • Variable at 2 KTS
Visibility
24,140 meters
Flight Rules
VFR
Cloud Levels
  • Broken at 8,300' AGL
Temperature
-23°C / -9°F
Dewpoint
-27°C / -17°F
Humidity
70%
Altimeter
29.91" Hg
Pressure
1016.3 hPa
Previous

6 hours ago

CYRA 200000Z 00000KT 15SM BKN098 M23/M27 A2989 RMK AC5 SLP158
Observed
Feb-20 @ 00:00 UTC
Visibility
24,140 meters
Flight Rules
VFR
Cloud Levels
  • Broken at 9,800' AGL
Temperature
-23°C / -9°F
Dewpoint
-27°C / -17°F
Humidity
70%
Altimeter
29.89" Hg
Pressure
1015.8 hPa
Previous

7 hours ago

CYRA 192300Z 00000KT 15SM SCT140 M22/M27 A2987 RMK AC4 SLP149
Observed
Feb-19 @ 23:00 UTC
Visibility
24,140 meters
Flight Rules
VFR
Cloud Levels
  • Scattered at 14,000' AGL
Temperature
-22°C / -8°F
Dewpoint
-27°C / -17°F
Humidity
64%
Altimeter
29.87" Hg
Pressure
1014.9 hPa